Time;durP1;ratioP1;P1;durP2;ratioP2;P2;SDS_P1;SDS_P2;PMS_P1;PMS_P2;Temp;Humidity;BMP_temperature;BMP_pressure;BME280_temperature;BME280_humidity;BME280_pressure;Samples;Min_cycle;Max_cycle;Signal;HPM_P1;HPM_P2
2022/10/06 07:09:05;;;;;;;14.60;13.00;;;;;;;;;;6165200;23;20025;-85
2022/10/06 07:11:37;;;;;;;15.48;12.70;;;;;;;;;;6187685;23;20175;-86
2022/10/06 07:14:05;;;;;;;14.70;12.73;;;;;;;;;;6187573;23;20063;-85
2022/10/06 09:11:45;;;;;;;7.88;7.07;;;;;;;;;;6169914;23;20017;-86
2022/10/06 09:14:27;;;;;;;8.77;7.00;;;;;;;;;;6186423;23;20005;-85
2022/10/06 09:17:00;;;;;;;8.98;7.25;;;;;;;;;;6195873;23;20076;-85
2022/10/06 09:19:56;;;;;;;10.15;8.30;;;;;;;;;;6216318;23;20005;-85
2022/10/06 09:22:22;;;;;;;8.23;7.38;;;;;;;;;;6189669;23;20309;-85
2022/10/06 09:24:54;;;;;;;8.20;7.40;;;;;;;;;;6189587;23;20100;-84
2022/10/06 09:27:28;;;;;;;7.40;6.70;;;;;;;;;;6215999;23;20008;-85
2022/10/06 09:29:54;;;;;;;8.20;7.50;;;;;;;;;;6216411;23;20055;-86
2022/10/06 09:32:21;;;;;;;8.88;8.07;;;;;;;;;;6216240;23;20005;-85
2022/10/06 09:34:55;;;;;;;9.90;7.82;;;;;;;;;;6189879;23;20353;-84
2022/10/06 09:37:22;;;;;;;8.70;7.07;;;;;;;;;;6215963;23;20001;-86
2022/10/06 09:39:51;;;;;;;7.68;6.88;;;;;;;;;;6189810;23;20009;-89
2022/10/06 09:42:24;;;;;;;8.13;7.32;;;;;;;;;;6216332;23;20000;-89
2022/10/06 09:44:49;;;;;;;7.30;6.70;;;;;;;;;;6189753;23;20370;-81
2022/10/06 09:47:23;;;;;;;9.13;7.75;;;;;;;;;;6216268;23;20015;-78
2022/10/06 09:50:18;;;;;;;9.80;8.40;;;;;;;;;;6215804;23;20058;-82
2022/10/06 09:52:56;;;;;;;9.95;8.95;;;;;;;;;;6216130;23;20004;-81
2022/10/06 09:55:27;;;;;;;7.97;7.18;;;;;;;;;;6189509;23;20016;-87
2022/10/06 09:57:57;;;;;;;9.25;7.20;;;;;;;;;;6216765;23;20005;-77
2022/10/06 10:00:37;;;;;;;11.23;9.10;;;;;;;;;;6216211;23;20008;-79
2022/10/06 10:03:06;;;;;;;8.77;7.85;;;;;;;;;;6216101;23;20043;-81
2022/10/06 10:05:33;;;;;;;7.82;6.60;;;;;;;;;;6216194;23;20331;-80
2022/10/06 10:08:16;;;;;;;9.25;7.85;;;;;;;;;;6215864;23;20001;-82
2022/10/06 10:10:42;;;;;;;8.02;7.22;;;;;;;;;;6215839;23;20009;-80
2022/10/06 10:13:20;;;;;;;8.45;7.65;;;;;;;;;;6216228;23;19997;-81
2022/10/06 10:15:59;;;;;;;8.13;7.30;;;;;;;;;;6189622;23;20012;-85
2022/10/06 10:18:29;;;;;;;8.93;7.50;;;;;;;;;;6215790;23;20012;-80
2022/10/06 10:21:09;;;;;;;7.03;6.43;;;;;;;;;;6189447;23;20012;-80
2022/10/06 10:23:54;;;;;;;7.43;6.72;;;;;;;;;;6215741;23;20008;-81
2022/10/06 10:26:46;;;;;;;7.80;7.00;;;;;;;;;;6189147;23;20001;-81
2022/10/06 10:29:30;;;;;;;7.70;7.00;;;;;;;;;;6216135;23;20428;-82
2022/10/06 10:32:06;;;;;;;9.57;8.48;;;;;;;;;;6215608;23;20009;-81
2022/10/06 10:34:57;;;;;;;10.38;7.63;;;;;;;;;;6215782;23;20004;-80
2022/10/06 10:37:23;;;;;;;7.65;6.90;;;;;;;;;;6188985;23;20034;-82
2022/10/06 10:39:55;;;;;;;8.05;6.97;;;;;;;;;;6216053;23;20005;-82
2022/10/06 10:42:28;;;;;;;8.20;6.63;;;;;;;;;;6216109;23;20380;-75
2022/10/06 10:45:01;;;;;;;6.75;6.07;;;;;;;;;;6216863;23;20083;-74
2022/10/06 10:47:36;;;;;;;6.80;6.20;;;;;;;;;;6217483;23;20008;-73
2022/10/06 10:50:07;;;;;;;6.13;5.63;;;;;;;;;;6217872;23;20081;-73
2022/10/06 10:52:40;;;;;;;7.43;6.72;;;;;;;;;;6217675;23;20072;-73
2022/10/06 10:55:29;;;;;;;11.43;6.38;;;;;;;;;;6217691;23;20331;-73
2022/10/06 10:57:58;;;;;;;6.90;6.20;;;;;;;;;;6217320;23;20001;-73
2022/10/06 11:00:27;;;;;;;6.78;6.18;;;;;;;;;;6217920;23;20124;-73
2022/10/06 11:02:55;;;;;;;;;;;;;;;;;;6218091;23;20008;-74
2022/10/06 11:05:54;;;;;;;6.82;6.20;;;;;;;;;;6217967;23;19911;-74
2022/10/06 11:08:31;;;;;;;7.20;6.53;;;;;;;;;;6217404;23;20004;-74
2022/10/06 11:11:14;;;;;;;6.75;6.15;;;;;;;;;;6217256;23;20123;-73
2022/10/06 11:13:47;;;;;;;7.68;6.80;;;;;;;;;;6217935;23;20004;-74
2022/10/06 11:16:18;;;;;;;7.50;6.80;;;;;;;;;;6217359;23;20001;-76
2022/10/06 11:19:14;;;;;;;7.47;6.68;;;;;;;;;;6190750;23;20387;-77
2022/10/06 11:22:08;;;;;;;7.53;6.78;;;;;;;;;;6217428;23;20428;-74
2022/10/06 11:24:45;;;;;;;7.40;6.70;;;;;;;;;;6217190;23;20001;-78
2022/10/06 11:27:30;;;;;;;7.85;7.03;;;;;;;;;;6217251;23;20413;-74
2022/10/06 11:30:11;;;;;;;7.88;7.18;;;;;;;;;;6217708;23;20040;-73
2022/10/06 11:33:03;;;;;;;8.10;7.35;;;;;;;;;;6217463;23;20009;-77
2022/10/06 11:35:34;;;;;;;9.73;8.02;;;;;;;;;;6197182;23;20067;-84
2022/10/06 11:38:11;;;;;;;8.70;7.90;;;;;;;;;;6217161;23;20008;-79
2022/10/06 11:40:46;;;;;;;9.05;7.82;;;;;;;;;;6217439;23;20001;-82
2022/10/06 11:43:15;;;;;;;9.48;8.50;;;;;;;;;;6217193;23;20137;-79
2022/10/06 11:45:53;;;;;;;11.27;8.93;;;;;;;;;;6190600;23;20008;-79
2022/10/06 16:26:19;;;;;;;9.35;7.55;;;;;;;;;;6163362;23;20040;-80
2022/10/06 16:28:44;;;;;;;11.25;7.72;;;;;;;;;;6215819;23;20070;-84
2022/10/06 16:31:10;;;;;;;8.82;7.20;;;;;;;;;;6190417;23;20080;-85
2022/10/06 16:33:36;;;;;;;6.78;6.07;;;;;;;;;;6189848;23;20423;-82
2022/10/06 16:36:01;;;;;;;8.27;5.95;;;;;;;;;;6216602;23;20011;-82
2022/10/06 16:38:27;;;;;;;6.90;6.30;;;;;;;;;;6189813;23;20079;-82
2022/10/06 16:40:54;;;;;;;6.90;6.30;;;;;;;;;;6190160;23;20009;-82
2022/10/06 16:43:19;;;;;;;7.82;7.03;;;;;;;;;;6215909;23;19996;-83
2022/10/06 16:45:57;;;;;;;7.20;6.07;;;;;;;;;;6216592;23;20427;-82
2022/10/06 16:48:31;;;;;;;6.90;6.35;;;;;;;;;;6216567;23;20423;-82
2022/10/06 16:51:08;;;;;;;7.15;6.45;;;;;;;;;;6216531;23;20335;-83
2022/10/06 16:53:38;;;;;;;6.13;5.60;;;;;;;;;;6216390;23;19996;-82
2022/10/06 16:56:05;;;;;;;7.72;6.50;;;;;;;;;;6216547;23;19997;-83
2022/10/06 16:58:40;;;;;;;7.55;6.85;;;;;;;;;;6215876;23;20015;-82
2022/10/06 17:01:05;;;;;;;9.25;6.90;;;;;;;;;;6189564;23;20458;-80
2022/10/06 17:03:31;;;;;;;9.73;7.22;;;;;;;;;;6216337;23;19996;-81
2022/10/06 17:06:09;;;;;;;7.72;7.03;;;;;;;;;;6216392;23;20059;-85
2022/10/06 17:08:35;;;;;;;8.55;6.88;;;;;;;;;;6189738;23;20009;-78
2022/10/06 17:11:20;;;;;;;7.35;5.95;;;;;;;;;;6216186;23;20053;-80
2022/10/06 17:13:47;;;;;;;7.18;6.47;;;;;;;;;;6216234;23;20027;-78
2022/10/06 17:16:16;;;;;;;6.72;6.10;;;;;;;;;;6216180;23;20043;-78
2022/10/06 17:18:46;;;;;;;8.03;7.33;;;;;;;;;;6215837;23;20047;-78
2022/10/06 17:21:12;;;;;;;8.10;7.25;;;;;;;;;;6216247;23;20072;-78
2022/10/06 17:23:37;;;;;;;8.05;7.30;;;;;;;;;;6216287;23;20082;-78
2022/10/06 17:26:16;;;;;;;7.20;6.40;;;;;;;;;;6216053;23;20087;-78
2022/10/06 17:28:50;;;;;;;7.75;6.60;;;;;;;;;;6216245;23;20000;-79
2022/10/06 17:31:18;;;;;;;8.10;7.32;;;;;;;;;;6215975;23;20008;-78
2022/10/06 17:33:43;;;;;;;7.82;7.03;;;;;;;;;;6216492;23;20416;-79
2022/10/06 17:36:21;;;;;;;6.75;6.15;;;;;;;;;;6216457;23;20003;-80
2022/10/06 17:38:49;;;;;;;7.35;6.60;;;;;;;;;;6215927;23;20015;-82
2022/10/06 17:41:21;;;;;;;8.38;7.47;;;;;;;;;;6216209;23;20154;-84
2022/10/06 17:43:48;;;;;;;8.38;6.60;;;;;;;;;;6216290;23;20000;-79
2022/10/06 17:46:19;;;;;;;8.13;6.32;;;;;;;;;;6216177;23;20417;-80
2022/10/06 17:48:50;;;;;;;8.43;6.28;;;;;;;;;;6216618;23;20062;-86
2022/10/06 17:51:22;;;;;;;9.30;6.97;;;;;;;;;;6216361;23;20009;-81
2022/10/06 17:53:52;;;;;;;6.47;5.65;;;;;;;;;;6216250;23;19996;-80
2022/10/06 17:56:21;;;;;;;6.78;6.07;;;;;;;;;;6216065;23;20416;-86
2022/10/06 17:58:54;;;;;;;7.55;6.80;;;;;;;;;;6216128;23;20088;-81
2022/10/06 18:01:21;;;;;;;8.55;7.70;;;;;;;;;;6216072;23;20071;-80
2022/10/06 18:03:47;;;;;;;10.55;7.10;;;;;;;;;;6215932;23;20003;-84
2022/10/06 18:06:16;;;;;;;7.68;6.95;;;;;;;;;;6216265;23;20001;-79
2022/10/06 18:08:43;;;;;;;7.68;6.88;;;;;;;;;;6216108;23;20036;-79
2022/10/06 18:11:37;;;;;;;8.27;7.20;;;;;;;;;;6216380;23;20003;-79
2022/10/06 18:14:04;;;;;;;8.57;7.32;;;;;;;;;;6216026;23;20320;-84
2022/10/06 18:16:38;;;;;;;7.63;6.82;;;;;;;;;;6216494;23;20024;-79
2022/10/06 18:19:07;;;;;;;7.95;7.18;;;;;;;;;;6216065;23;20012;-87
2022/10/06 18:21:37;;;;;;;9.18;7.30;;;;;;;;;;6216151;23;20001;-83
2022/10/06 18:24:14;;;;;;;8.60;7.18;;;;;;;;;;6216169;23;19997;-85
2022/10/06 18:26:41;;;;;;;8.40;7.40;;;;;;;;;;6216017;23;20016;-88
2022/10/06 18:29:08;;;;;;;8.10;7.30;;;;;;;;;;6216198;23;20004;-80
2022/10/06 18:31:34;;;;;;;7.80;7.07;;;;;;;;;;6215126;23;20009;-83
2022/10/06 18:34:00;;;;;;;9.25;7.60;;;;;;;;;;6189417;23;20317;-78
2022/10/06 18:36:25;;;;;;;8.02;7.22;;;;;;;;;;6216124;23;20015;-79
2022/10/06 18:38:54;;;;;;;8.82;7.93;;;;;;;;;;6215856;23;20008;-84
2022/10/06 18:41:21;;;;;;;9.02;7.05;;;;;;;;;;6189101;23;20012;-84
2022/10/06 18:43:47;;;;;;;9.10;7.20;;;;;;;;;;6215958;23;20416;-78
2022/10/06 18:48:59;;;;;;;8.50;7.63;;;;;;;;;;6216116;23;20031;-79
2022/10/06 18:51:28;;;;;;;9.30;7.35;;;;;;;;;;6215759;23;20066;-79
2022/10/06 18:53:55;;;;;;;7.40;6.53;;;;;;;;;;6216079;23;20028;-79
2022/10/06 18:56:24;;;;;;;7.95;6.32;;;;;;;;;;6215911;23;20008;-79
2022/10/06 18:58:50;;;;;;;7.90;6.85;;;;;;;;;;6215593;23;20031;-79
2022/10/06 19:01:16;;;;;;;8.27;6.70;;;;;;;;;;6216074;23;20420;-84
2022/10/06 19:03:41;;;;;;;7.80;7.00;;;;;;;;;;6215969;23;20003;-84
2022/10/06 19:06:07;;;;;;;7.30;6.60;;;;;;;;;;6217020;23;20004;-80
2022/10/06 19:08:33;;;;;;;10.32;7.80;;;;;;;;;;6217583;23;20000;-80
2022/10/06 19:13:48;;;;;;;8.83;6.60;;;;;;;;;;6217800;23;20062;-84
2022/10/06 19:16:14;;;;;;;8.13;7.32;;;;;;;;;;6217528;23;20001;-87
2022/10/06 19:18:40;;;;;;;9.48;8.23;;;;;;;;;;6217512;23;20008;-80
2022/10/06 19:21:06;;;;;;;8.77;7.00;;;;;;;;;;6217484;23;20072;-83
2022/10/06 19:23:32;;;;;;;7.78;6.97;;;;;;;;;;6217766;23;20012;-81
2022/10/06 19:25:59;;;;;;;7.63;6.68;;;;;;;;;;6217196;23;20017;-80
2022/10/06 19:28:29;;;;;;;8.18;7.47;;;;;;;;;;6217471;23;20341;-85
2022/10/06 19:31:02;;;;;;;;;;;;;;;;;;6218141;23;19997;-87
2022/10/06 19:33:29;;;;;;;9.82;6.82;;;;;;;;;;6217380;23;19987;-84
2022/10/06 19:35:56;;;;;;;7.72;6.97;;;;;;;;;;6217306;23;20324;-80
2022/10/06 19:38:23;;;;;;;8.68;7.30;;;;;;;;;;6216617;23;20011;-79
2022/10/06 19:40:48;;;;;;;7.97;7.18;;;;;;;;;;6217262;23;19996;-80
2022/10/06 19:43:14;;;;;;;7.63;6.85;;;;;;;;;;6217056;23;20058;-78
2022/10/06 19:45:40;;;;;;;8.32;6.93;;;;;;;;;;6217159;23;20408;-78
2022/10/06 19:48:09;;;;;;;9.48;7.75;;;;;;;;;;6216976;23;20000;-79
2022/10/06 19:50:37;;;;;;;7.65;6.95;;;;;;;;;;6217134;23;20003;-78
2022/10/06 19:53:06;;;;;;;11.07;7.40;;;;;;;;;;6216862;23;20049;-78
2022/10/06 19:55:32;;;;;;;8.68;7.78;;;;;;;;;;6217148;23;20055;-78
2022/10/06 19:57:58;;;;;;;7.93;7.20;;;;;;;;;;6216833;23;20008;-78
2022/10/06 20:00:25;;;;;;;8.45;7.45;;;;;;;;;;6217046;23;20416;-78
2022/10/06 20:02:50;;;;;;;7.18;6.57;;;;;;;;;;6216857;23;20001;-84
2022/10/06 20:05:16;;;;;;;10.70;8.75;;;;;;;;;;6218381;23;20446;-78
2022/10/06 20:07:43;;;;;;;8.98;8.00;;;;;;;;;;6216852;23;20451;-78
2022/10/06 20:10:10;;;;;;;8.88;7.40;;;;;;;;;;6216696;23;20104;-82
2022/10/06 20:12:37;;;;;;;9.60;7.22;;;;;;;;;;6216698;23;20004;-79
2022/10/06 20:15:04;;;;;;;7.32;6.07;;;;;;;;;;6217015;23;20004;-83
2022/10/06 20:17:29;;;;;;;8.13;6.45;;;;;;;;;;6216880;23;20031;-84
2022/10/06 20:19:55;;;;;;;8.10;7.38;;;;;;;;;;6216545;23;20420;-79
2022/10/06 20:22:22;;;;;;;7.45;6.75;;;;;;;;;;6216872;23;20031;-79
2022/10/06 20:24:47;;;;;;;8.55;7.72;;;;;;;;;;6216643;23;20301;-79
2022/10/06 20:27:13;;;;;;;10.52;8.77;;;;;;;;;;6217001;23;20055;-85
2022/10/06 20:29:38;;;;;;;12.05;9.88;;;;;;;;;;6216763;23;20047;-84
2022/10/06 20:32:04;;;;;;;8.98;7.53;;;;;;;;;;6216814;23;20001;-86
2022/10/06 20:34:30;;;;;;;8.00;7.18;;;;;;;;;;6216744;23;20005;-83
2022/10/06 20:36:58;;;;;;;10.90;9.80;;;;;;;;;;6216672;23;20009;-83
2022/10/06 20:42:10;;;;;;;13.93;9.00;;;;;;;;;;6216569;23;20011;-83
2022/10/06 20:44:35;;;;;;;11.48;10.30;;;;;;;;;;6216581;23;20446;-80
2022/10/06 20:47:02;;;;;;;11.32;9.63;;;;;;;;;;6216720;23;20008;-83
2022/10/06 20:49:27;;;;;;;11.18;9.63;;;;;;;;;;6216544;23;20035;-82
2022/10/06 20:51:53;;;;;;;12.60;11.30;;;;;;;;;;6216497;23;20000;-81
2022/10/06 20:54:22;;;;;;;12.45;10.63;;;;;;;;;;6216501;23;20001;-80
2022/10/06 20:56:50;;;;;;;10.98;9.82;;;;;;;;;;6216519;23;20420;-83
2022/10/06 20:59:17;;;;;;;12.32;10.27;;;;;;;;;;6216466;23;20419;-82
2022/10/06 21:01:43;;;;;;;10.80;9.55;;;;;;;;;;6216457;23;20404;-82
2022/10/06 21:04:09;;;;;;;12.07;10.75;;;;;;;;;;6216717;23;19996;-82
2022/10/06 21:06:39;;;;;;;12.70;9.52;;;;;;;;;;6216364;23;20067;-82
2022/10/06 21:09:11;;;;;;;9.85;8.77;;;;;;;;;;6216464;23;20000;-83
2022/10/06 21:11:36;;;;;;;11.45;9.43;;;;;;;;;;6216362;23;20088;-83
2022/10/06 21:14:02;;;;;;;9.68;8.25;;;;;;;;;;6216314;23;20032;-82
2022/10/06 21:16:31;;;;;;;9.68;8.68;;;;;;;;;;6216316;23;20435;-83
2022/10/06 21:19:08;;;;;;;12.48;9.52;;;;;;;;;;6216227;23;20040;-82
2022/10/06 21:21:34;;;;;;;8.68;7.60;;;;;;;;;;6216497;23;20012;-83
2022/10/06 21:24:00;;;;;;;7.90;7.10;;;;;;;;;;6216123;23;20409;-83
2022/10/06 21:26:26;;;;;;;9.20;8.15;;;;;;;;;;6216102;23;20017;-82
2022/10/06 21:28:51;;;;;;;7.63;6.93;;;;;;;;;;6216032;23;20039;-82
2022/10/06 21:31:19;;;;;;;10.63;8.38;;;;;;;;;;6216241;23;20031;-81
2022/10/06 21:33:45;;;;;;;12.30;9.95;;;;;;;;;;6216239;23;20032;-85
2022/10/06 21:36:15;;;;;;;7.68;6.70;;;;;;;;;;6216313;23;20443;-84
2022/10/06 21:38:43;;;;;;;9.23;7.80;;;;;;;;;;6216192;23;20009;-83
2022/10/06 21:41:51;;;;;;;11.25;8.40;;;;;;;;;;6216086;23;20005;-84
2022/10/06 21:44:01;;;;;;;14.10;11.40;;;;;;;;;;6205431;23;20067;-84
2022/10/06 21:46:30;;;;;;;12.57;9.88;;;;;;;;;;6189752;23;20004;-84
2022/10/06 21:48:57;;;;;;;11.00;9.55;;;;;;;;;;6216232;23;20063;-84
2022/10/06 21:51:25;;;;;;;11.40;10.18;;;;;;;;;;6215975;23;20005;-85
2022/10/06 21:53:51;;;;;;;11.57;10.45;;;;;;;;;;6216096;23;20005;-84
2022/10/06 21:56:17;;;;;;;10.95;9.85;;;;;;;;;;6216380;23;20428;-84
2022/10/06 21:58:45;;;;;;;9.95;8.88;;;;;;;;;;6216048;23;20015;-85
2022/10/06 22:01:11;;;;;;;11.43;9.50;;;;;;;;;;6189537;23;20450;-82
2022/10/06 22:03:37;;;;;;;8.57;7.68;;;;;;;;;;6216123;23;20024;-83
2022/10/06 22:06:08;;;;;;;9.13;7.22;;;;;;;;;;6216193;23;20011;-83
2022/10/06 22:08:35;;;;;;;7.72;6.90;;;;;;;;;;6216115;23;19996;-80
2022/10/06 22:11:10;;;;;;;7.03;6.32;;;;;;;;;;6216048;23;20086;-82
2022/10/06 22:13:39;;;;;;;9.63;8.63;;;;;;;;;;6216069;23;20004;-83
